Leupp, AZ (86035)

6:40 AM MST on February 28, 2015 (GMT -0700)
Winslow-Lindbergh Regional | Change Station
CLOSE
Current Station
Airport
Location: Winslow,
Elevation: 4882 ft
Nearby Weather Stations
Active Advisory: Wind Advisory

Elev 4882 ft 35.03 °N, 110.72 °W | Updated 44 minutes ago

Overcast
Overcast
41 °F
Feels Like 38 °F
N
5
Wind Variable Wind from SE

Today
High -- | Low -- °F
--% Chance of Precip.
Yesterday
High -- | Low -- °F
Precip. -- in
6:55 AM 6:18 PM
Waxing Gibbous, 77% visible
Pressure 29.66 in
Visibility 10.0 miles
Clouds Few 3100 ft
Mostly Cloudy 4000 ft
Overcast 6000 ft
Windchill 38 °F
Dew Point 37 °F
Humidity 86%
Rainfall 0.03 in
Snow Depth Not available.
UV 0 out of 12
Pollen 6.60 out of 12
Air Quality Not available.
Flu Activity Not available.
METAR KINW 281256Z AUTO 13004KT 10SM FEW031 BKN040 OVC060 05/03 A2971 RMK AO2 RAE20 SLP044 P0000 T00500028

More Conditions Fewer Conditions

Pressure 29.66 in
Visibility 10.0 miles
Clouds Few 3100 ft
Mostly Cloudy 4000 ft
Overcast 6000 ft
Windchill 38 °F
Dew Point 37 °F
Humidity 86%
Rainfall 0.03 in
Snow Depth Not available.
UV 0 out of 12
Pollen 6.60 out of 12
Air Quality Not available.
Flu Activity Not available.
METAR KINW 281256Z AUTO 13004KT 10SM FEW031 BKN040 OVC060 05/03 A2971 RMK AO2 RAE20 SLP044 P0000 T00500028

More Conditions Fewer Conditions

10-Day Weather Forecast

Almanac

Astronomy

Feb. 28, 2015 Rise Set
Actual Time
Civil Twilight
Nautical Twilight
Astronomical Twilight
Moon
Length of Visible Light
Length of Day
Tomorrow will be .
, % of the Moon is Illuminated

Today's Extremes

State Highs State Lows

Community

WunderPhotos

Upload Photos

1,801,014 photos uploaded!

WunderBlogs® & News

Nearby

Air Quality

  Air Quality AQ Index Pollutant
Not available.

Snow Depth

Station Depth Elevation

Earthquake Activity

City Distance Mag. Time & Date
Minimum magnitude displayed is 2.5.

Coastal Water Temperatures

Place Temperature

Nearby Weather Stations

Wind Advisory
Statement as of 5:19 AM MST on February 28, 2015

... Wind Advisory remains in effect from 11 am this morning to
7 PM MST this evening...

* timing... gusty winds will develop by mid to late morning and
continue through early evening. Locally gusty winds will
persist overnight Saturday ahead of an approaching cold front.

* Winds... southwest 20 to 30 mph with gusts from 40 to 50 mph.

* Impacts... winds this strong can make driving difficult...
especially for high profile vehicles.

Precautionary/preparedness actions...

A Wind Advisory means that sustained winds of 30 to 39 mph... or
gusts from 40 to 57 mph... are expected. Winds this strong can
make driving difficult... especially for high profile vehicles.
Consider securing loose belongings on your property. Additional
weather information is on the web at www.Weather.Gov/Flagstaff.